Time;durP1;ratioP1;P1;durP2;ratioP2;P2;SDS_P1;SDS_P2;PMS_P1;PMS_P2;Temp;Humidity;BMP_temperature;BMP_pressure;BME280_temperature;BME280_humidity;BME280_pressure;Samples;Min_cycle;Max_cycle;Signal;HPM_P1;HPM_P2
2021/11/30 00:02:19;;;;;;;;;;;2.60;99.90;;;;;;4987768;28;19925;-59
2021/11/30 00:04:44;;;;;;;;;;;2.60;99.90;;;;;;4988217;28;19917;-59
2021/11/30 00:07:10;;;;;;;;;;;2.60;99.90;;;;;;4986931;28;19910;-60
2021/11/30 00:12:02;;;;;;;;;;;2.60;99.90;;;;;;4988358;28;19921;-59
2021/11/30 00:14:28;;;;;;;;;;;2.70;99.90;;;;;;4988707;28;19917;-60
2021/11/30 00:16:55;;;;;;;;;;;2.70;99.90;;;;;;4988283;28;19913;-60
2021/11/30 00:19:20;;;;;;;;;;;2.70;99.90;;;;;;4990584;28;19918;-59
2021/11/30 00:21:46;;;;;;;;;;;2.70;99.90;;;;;;4987670;28;20020;-59
2021/11/30 00:24:11;;;;;;;;;;;2.70;99.90;;;;;;4987470;28;19914;-60
2021/11/30 00:26:37;;;;;;;;;;;2.70;99.90;;;;;;4987121;28;19925;-60
2021/11/30 00:29:02;;;;;;;;;;;2.70;99.90;;;;;;4987291;28;19925;-60
2021/11/30 00:31:28;;;;;;;;;;;2.80;99.90;;;;;;4993237;28;19917;-60
2021/11/30 00:33:53;;;;;;;;;;;2.80;99.90;;;;;;4987266;28;20008;-60
2021/11/30 00:36:20;;;;;;;;;;;2.80;99.90;;;;;;4990285;28;19921;-60
2021/11/30 00:38:46;;;;;;;;;;;2.80;99.90;;;;;;4987786;28;19917;-60
2021/11/30 00:41:11;;;;;;;;;;;2.80;99.90;;;;;;4987546;28;19922;-60
2021/11/30 00:43:38;;;;;;;;;;;2.90;99.90;;;;;;4988260;28;20570;-60
2021/11/30 00:46:15;;;;;;;;;;;3.00;99.90;;;;;;4987581;28;20573;-60
2021/11/30 00:48:41;;;;;;;;;;;2.90;99.90;;;;;;4987659;28;20386;-60
2021/11/30 00:51:11;;;;;;;;;;;3.00;99.90;;;;;;4987694;28;19945;-59
2021/11/30 00:53:37;;;;;;;;;;;3.10;99.90;;;;;;4999200;28;19922;-60
2021/11/30 00:56:02;;;;;;;;;;;3.10;99.90;;;;;;4989415;28;19954;-60
2021/11/30 00:58:28;;;;;;;;;;;3.10;99.90;;;;;;4987259;28;19952;-60
2021/11/30 01:00:53;;;;;;;;;;;3.10;99.90;;;;;;4986778;28;19936;-60
2021/11/30 01:03:19;;;;;;;;;;;3.20;99.90;;;;;;4988091;28;19914;-61
2021/11/30 01:05:44;;;;;;;;;;;3.20;99.90;;;;;;4990350;28;20410;-60
2021/11/30 01:08:10;;;;;;;;;;;3.20;99.90;;;;;;4987971;28;19918;-60
2021/11/30 01:10:36;;;;;;;;;;;3.20;99.90;;;;;;4988712;28;20008;-61
2021/11/30 01:13:02;;;;;;;;;;;3.30;99.90;;;;;;4990216;28;19918;-61
2021/11/30 01:15:28;;;;;;;;;;;3.30;99.90;;;;;;4993320;28;19964;-60
2021/11/30 01:17:53;;;;;;;;;;;3.30;99.90;;;;;;4989881;28;20328;-60
2021/11/30 01:20:19;;;;;;;;;;;3.30;99.90;;;;;;4992487;28;19914;-60
2021/11/30 01:22:45;;;;;;;;;;;3.30;99.90;;;;;;4991086;28;20037;-60
2021/11/30 01:25:11;;;;;;;;;;;3.30;99.90;;;;;;4990451;28;19964;-59
2021/11/30 01:27:39;;;;;;;;;;;3.40;99.90;;;;;;4990311;28;20557;-60
2021/11/30 01:30:06;;;;;;;;;;;3.40;99.90;;;;;;5049396;23;19925;-65
2021/11/30 01:32:31;;;;;;;;;;;3.40;99.90;;;;;;5027433;28;19917;-65
2021/11/30 01:34:57;;;;;;;;;;;3.40;99.90;;;;;;5030202;28;20326;-65
2021/11/30 01:37:22;;;;;;;;;;;3.40;99.90;;;;;;5027933;28;19917;-65
2021/11/30 01:39:48;;;;;;;;;;;3.40;99.90;;;;;;5029407;28;19921;-65
2021/11/30 01:42:14;;;;;;;;;;;3.40;99.90;;;;;;5029264;28;19921;-65
2021/11/30 01:44:48;;;;;;;;;;;3.50;99.90;;;;;;5010809;28;20303;-65
2021/11/30 01:49:49;;;;;;;;;;;3.50;99.90;;;;;;5028429;28;19928;-65
2021/11/30 01:52:15;;;;;;;;;;;3.50;99.90;;;;;;5029011;28;20388;-65
2021/11/30 01:54:42;;;;;;;;;;;3.50;99.90;;;;;;5028363;28;19921;-65
2021/11/30 01:57:09;;;;;;;;;;;3.50;99.90;;;;;;5029287;28;19976;-65
2021/11/30 01:59:34;;;;;;;;;;;3.50;99.90;;;;;;5027232;28;19929;-65
2021/11/30 02:02:00;;;;;;;;;;;3.50;99.90;;;;;;5029604;28;19921;-65
2021/11/30 02:04:25;;;;;;;;;;;3.50;99.90;;;;;;5025067;28;19959;-65
2021/11/30 02:06:51;;;;;;;;;;;3.50;99.90;;;;;;5027991;28;20012;-65
2021/11/30 02:09:16;;;;;;;;;;;3.50;99.90;;;;;;5024905;28;20376;-65
2021/11/30 02:11:42;;;;;;;;;;;3.50;99.90;;;;;;5027747;28;20317;-65
2021/11/30 02:14:07;;;;;;;;;;;3.50;99.90;;;;;;5028189;28;20418;-65
2021/11/30 02:16:33;;;;;;;;;;;3.50;99.90;;;;;;5011355;28;19999;-65
2021/11/30 02:19:00;;;;;;;;;;;3.50;99.90;;;;;;5026985;28;19921;-65
2021/11/30 02:21:29;;;;;;;;;;;3.50;99.90;;;;;;5026846;28;20516;-65
2021/11/30 02:23:59;;;;;;;;;;;3.50;99.90;;;;;;5030220;28;19916;-65
2021/11/30 02:26:25;;;;;;;;;;;3.50;99.90;;;;;;5025523;28;19921;-65
2021/11/30 02:28:51;;;;;;;;;;;3.50;99.90;;;;;;5027949;28;19917;-65
2021/11/30 02:31:18;;;;;;;;;;;3.50;99.90;;;;;;5025675;28;19936;-65
2021/11/30 02:33:43;;;;;;;;;;;3.50;99.90;;;;;;5029432;28;19920;-65
2021/11/30 02:36:28;;;;;;;;;;;3.50;99.90;;;;;;5026784;28;20283;-65
2021/11/30 02:38:53;;;;;;;;;;;3.50;99.90;;;;;;5027659;28;19913;-65
2021/11/30 02:41:20;;;;;;;;;;;3.50;99.90;;;;;;5024768;28;19920;-65
2021/11/30 02:43:45;;;;;;;;;;;3.50;99.90;;;;;;5029789;28;19999;-64
2021/11/30 02:46:11;;;;;;;;;;;3.50;99.90;;;;;;5026004;28;19996;-65
2021/11/30 02:48:36;;;;;;;;;;;3.50;99.90;;;;;;5027807;28;20013;-65
2021/11/30 02:51:06;;;;;;;;;;;3.50;99.90;;;;;;5026770;28;19963;-65
2021/11/30 02:53:31;;;;;;;;;;;3.50;99.90;;;;;;5027654;28;19925;-65
2021/11/30 02:55:57;;;;;;;;;;;3.50;99.90;;;;;;5028109;28;19917;-65
2021/11/30 02:58:22;;;;;;;;;;;3.50;99.90;;;;;;5026443;28;19924;-65
2021/11/30 03:00:48;;;;;;;;;;;3.50;99.90;;;;;;5025386;28;19925;-65
2021/11/30 03:03:14;;;;;;;;;;;3.50;99.90;;;;;;5025177;28;19914;-65
2021/11/30 03:05:40;;;;;;;;;;;3.50;99.90;;;;;;5023647;28;20003;-65
2021/11/30 03:08:05;;;;;;;;;;;3.50;99.90;;;;;;5027060;28;20027;-65
2021/11/30 03:10:31;;;;;;;;;;;3.50;99.90;;;;;;5026829;28;20425;-65
2021/11/30 03:12:56;;;;;;;;;;;3.60;99.90;;;;;;5027039;28;19914;-64
2021/11/30 03:15:23;;;;;;;;;;;3.50;99.90;;;;;;5025809;28;19917;-65
2021/11/30 03:17:49;;;;;;;;;;;3.50;99.90;;;;;;5026688;28;19927;-65
2021/11/30 03:20:15;;;;;;;;;;;3.50;99.90;;;;;;5028131;28;20007;-65
2021/11/30 03:22:40;;;;;;;;;;;3.60;99.90;;;;;;5025978;28;19957;-64
2021/11/30 03:25:07;;;;;;;;;;;3.60;99.90;;;;;;5028053;28;20359;-65
2021/11/30 03:27:34;;;;;;;;;;;3.60;99.90;;;;;;5025751;28;19923;-65
2021/11/30 03:30:00;;;;;;;;;;;3.60;99.90;;;;;;5025268;28;19921;-64
2021/11/30 03:35:11;;;;;;;;;;;3.50;99.90;;;;;;5027783;28;20330;-65
2021/11/30 03:37:37;;;;;;;;;;;3.50;99.90;;;;;;5024347;28;19914;-67
2021/11/30 03:40:04;;;;;;;;;;;3.50;99.90;;;;;;5022415;28;19924;-67
2021/11/30 03:42:30;;;;;;;;;;;3.50;99.90;;;;;;5027448;28;19924;-65
2021/11/30 03:44:55;;;;;;;;;;;3.50;99.90;;;;;;5026125;28;19913;-65
2021/11/30 03:47:22;;;;;;;;;;;3.50;99.90;;;;;;5026873;28;19956;-65
2021/11/30 03:49:47;;;;;;;;;;;3.50;99.90;;;;;;5027082;28;20379;-65
2021/11/30 03:52:13;;;;;;;;;;;3.50;99.90;;;;;;5027990;28;19909;-65
2021/11/30 03:54:38;;;;;;;;;;;3.50;99.90;;;;;;5027052;28;19920;-65
2021/11/30 03:57:04;;;;;;;;;;;3.50;99.90;;;;;;5026482;28;20360;-67
2021/11/30 03:59:30;;;;;;;;;;;3.50;99.90;;;;;;5020974;28;20095;-67
2021/11/30 04:01:55;;;;;;;;;;;3.50;99.90;;;;;;5010269;28;19917;-67
2021/11/30 04:04:23;;;;;;;;;;;3.50;99.90;;;;;;5024286;28;20016;-68
2021/11/30 04:06:49;;;;;;;;;;;3.50;99.90;;;;;;5028192;28;19915;-68
2021/11/30 04:09:15;;;;;;;;;;;3.50;99.90;;;;;;5023549;28;19971;-66
2021/11/30 04:11:40;;;;;;;;;;;3.50;99.90;;;;;;5025803;28;19921;-66
2021/11/30 04:14:07;;;;;;;;;;;3.50;99.90;;;;;;5003540;28;19967;-65
2021/11/30 04:16:32;;;;;;;;;;;3.50;99.90;;;;;;5025652;28;19923;-66
2021/11/30 04:18:58;;;;;;;;;;;3.50;99.90;;;;;;5007315;28;19988;-65
2021/11/30 04:21:24;;;;;;;;;;;3.50;99.90;;;;;;5026166;28;20356;-65
2021/11/30 04:23:50;;;;;;;;;;;3.50;99.90;;;;;;5025829;28;20543;-65
2021/11/30 04:26:15;;;;;;;;;;;3.50;99.90;;;;;;5025932;28;20207;-65
2021/11/30 04:28:43;;;;;;;;;;;3.50;99.90;;;;;;5026536;28;19917;-66
2021/11/30 04:31:08;;;;;;;;;;;3.50;99.90;;;;;;5023103;28;19921;-66
2021/11/30 04:33:34;;;;;;;;;;;3.50;99.90;;;;;;5026319;28;20383;-66
2021/11/30 04:35:59;;;;;;;;;;;3.60;99.90;;;;;;5026967;28;20336;-65
2021/11/30 04:38:25;;;;;;;;;;;3.60;99.90;;;;;;5026310;28;19917;-66
2021/11/30 04:40:50;;;;;;;;;;;3.60;99.90;;;;;;5025256;28;19916;-66
2021/11/30 04:43:16;;;;;;;;;;;3.60;99.90;;;;;;5026542;28;20017;-65
2021/11/30 04:46:06;;;;;;;;;;;3.60;99.90;;;;;;5026550;28;19956;-66
2021/11/30 04:48:27;;;;;;;;;;;3.60;99.90;;;;;;5028186;28;19998;-66
2021/11/30 04:50:55;;;;;;;;;;;3.60;99.90;;;;;;5028139;28;19964;-65
2021/11/30 04:53:21;;;;;;;;;;;3.60;99.90;;;;;;5029747;28;20286;-66
2021/11/30 04:55:50;;;;;;;;;;;3.60;99.90;;;;;;5029848;28;19920;-65
2021/11/30 04:58:15;;;;;;;;;;;3.60;99.90;;;;;;5030097;28;19920;-65
2021/11/30 05:00:40;;;;;;;;;;;3.60;99.90;;;;;;5022483;28;20564;-65
2021/11/30 05:03:06;;;;;;;;;;;3.60;99.90;;;;;;5026866;28;19917;-65
2021/11/30 05:05:32;;;;;;;;;;;3.60;99.90;;;;;;5029627;28;19921;-65
2021/11/30 05:07:57;;;;;;;;;;;3.60;99.90;;;;;;5028421;28;19913;-65
2021/11/30 05:10:23;;;;;;;;;;;3.60;99.90;;;;;;5021950;28;19921;-66
2021/11/30 05:12:48;;;;;;;;;;;3.60;99.90;;;;;;5028519;28;19917;-65
2021/11/30 05:15:14;;;;;;;;;;;3.50;99.90;;;;;;5027166;28;19988;-65
2021/11/30 05:17:41;;;;;;;;;;;3.50;99.90;;;;;;5027294;28;19914;-65
2021/11/30 05:20:07;;;;;;;;;;;3.50;99.90;;;;;;5025670;28;19963;-65
2021/11/30 05:22:32;;;;;;;;;;;3.50;99.90;;;;;;5027817;28;19921;-65
2021/11/30 05:24:58;;;;;;;;;;;3.40;99.90;;;;;;5030605;28;19920;-66
2021/11/30 05:27:24;;;;;;;;;;;3.40;99.90;;;;;;5027503;28;19917;-65
2021/11/30 05:29:49;;;;;;;;;;;3.40;99.90;;;;;;5026701;28;19928;-65
2021/11/30 05:32:15;;;;;;;;;;;3.30;99.90;;;;;;5022779;28;20376;-65
2021/11/30 05:34:40;;;;;;;;;;;3.30;99.90;;;;;;5026086;28;20372;-66
2021/11/30 05:37:06;;;;;;;;;;;3.30;99.90;;;;;;5019934;28;19925;-66
2021/11/30 05:39:31;;;;;;;;;;;3.30;99.90;;;;;;5026885;28;20005;-65
2021/11/30 05:41:57;;;;;;;;;;;3.20;99.90;;;;;;5027732;28;19921;-65
2021/11/30 05:44:22;;;;;;;;;;;3.20;99.90;;;;;;5029116;28;19917;-65
2021/11/30 05:46:49;;;;;;;;;;;3.20;99.90;;;;;;5028302;28;19920;-65
2021/11/30 05:49:15;;;;;;;;;;;3.20;99.90;;;;;;5024812;28;19924;-65
2021/11/30 05:51:40;;;;;;;;;;;3.20;99.90;;;;;;5027853;28;19917;-65
2021/11/30 05:54:06;;;;;;;;;;;3.20;99.90;;;;;;5027858;28;19917;-65
2021/11/30 05:56:32;;;;;;;;;;;3.20;99.90;;;;;;5027300;28;20004;-65
2021/11/30 05:58:57;;;;;;;;;;;3.20;99.90;;;;;;5027194;28;19957;-65
2021/11/30 06:01:27;;;;;;;;;;;3.20;99.90;;;;;;5008849;28;20339;-65
2021/11/30 06:03:57;;;;;;;;;;;3.20;99.90;;;;;;5026161;28;19925;-65
2021/11/30 06:06:23;;;;;;;;;;;3.20;99.90;;;;;;5028143;28;19917;-65
2021/11/30 06:08:48;;;;;;;;;;;3.20;99.90;;;;;;5028774;28;20028;-65
2021/11/30 06:11:14;;;;;;;;;;;3.20;99.90;;;;;;5024492;28;19924;-65
2021/11/30 06:13:39;;;;;;;;;;;3.30;99.90;;;;;;5025015;28;20388;-65
2021/11/30 06:16:05;;;;;;;;;;;3.30;99.90;;;;;;5027680;28;20007;-65
2021/11/30 06:18:30;;;;;;;;;;;3.30;99.90;;;;;;5009026;28;19964;-65
2021/11/30 06:20:57;;;;;;;;;;;3.30;99.90;;;;;;5009462;28;19921;-65
2021/11/30 06:23:23;;;;;;;;;;;3.30;99.90;;;;;;5009968;28;19913;-65
2021/11/30 06:25:48;;;;;;;;;;;3.40;99.90;;;;;;5027731;28;19923;-65
2021/11/30 06:28:14;;;;;;;;;;;3.30;99.90;;;;;;5027902;28;19921;-65
2021/11/30 06:30:39;;;;;;;;;;;3.30;99.90;;;;;;5022520;28;20340;-67
2021/11/30 06:33:04;;;;;;;;;;;3.30;99.90;;;;;;5012044;28;20540;-65
2021/11/30 06:35:30;;;;;;;;;;;3.30;99.90;;;;;;5028214;28;19917;-65
2021/11/30 06:37:55;;;;;;;;;;;3.40;99.90;;;;;;5028524;28;19913;-65
2021/11/30 06:40:21;;;;;;;;;;;3.40;99.90;;;;;;5027470;28;19913;-65
2021/11/30 06:42:46;;;;;;;;;;;3.40;99.90;;;;;;5028286;28;19975;-65
2021/11/30 06:45:12;;;;;;;;;;;3.40;99.90;;;;;;5028299;28;19968;-65
2021/11/30 06:47:37;;;;;;;;;;;3.50;99.90;;;;;;5028264;28;19921;-65
2021/11/30 06:50:12;;;;;;;;;;;3.50;99.90;;;;;;5027469;28;20360;-65
2021/11/30 06:52:38;;;;;;;;;;;3.50;99.90;;;;;;5029146;28;20300;-65
2021/11/30 06:55:05;;;;;;;;;;;3.50;99.90;;;;;;5029112;28;19920;-65
2021/11/30 06:57:30;;;;;;;;;;;3.50;99.90;;;;;;5025841;28;19917;-65
2021/11/30 07:00:03;;;;;;;;;;;3.60;99.90;;;;;;5028859;28;19914;-65
2021/11/30 07:02:29;;;;;;;;;;;3.60;99.90;;;;;;5027533;28;19932;-65
2021/11/30 07:04:57;;;;;;;;;;;3.70;99.90;;;;;;5027779;28;20307;-65
2021/11/30 07:07:51;;;;;;;;;;;3.70;99.90;;;;;;5026558;28;20548;-65
2021/11/30 07:10:35;;;;;;;;;;;3.70;99.90;;;;;;5022705;28;19917;-68
2021/11/30 07:15:29;;;;;;;;;;;4.90;99.90;;;;;;5019437;28;19924;-65
2021/11/30 07:17:57;;;;;;;;;;;5.20;99.90;;;;;;5022705;28;19913;-65
2021/11/30 07:20:22;;;;;;;;;;;5.00;99.90;;;;;;5022792;28;19917;-65
2021/11/30 07:22:48;;;;;;;;;;;4.70;99.90;;;;;;5026892;28;20399;-64
2021/11/30 07:25:13;;;;;;;;;;;4.50;99.90;;;;;;5026297;28;19913;-65
2021/11/30 07:27:38;;;;;;;;;;;4.40;99.90;;;;;;5024614;28;19917;-65
2021/11/30 07:30:04;;;;;;;;;;;4.30;99.90;;;;;;5037808;23;20311;-75
2021/11/30 07:32:30;;;;;;;;;;;4.20;99.90;;;;;;5008231;28;19917;-71
2021/11/30 07:34:55;;;;;;;;;;;4.20;99.90;;;;;;5025377;28;20015;-74
2021/11/30 07:37:20;;;;;;;;;;;4.20;99.90;;;;;;5029475;28;20411;-74
2021/11/30 07:39:46;;;;;;;;;;;4.20;99.90;;;;;;5023069;28;19921;-76
2021/11/30 07:42:12;;;;;;;;;;;4.20;99.90;;;;;;5026023;28;19928;-74
2021/11/30 07:44:37;;;;;;;;;;;4.20;99.90;;;;;;5023447;28;19913;-74
2021/11/30 07:47:03;;;;;;;;;;;4.30;99.90;;;;;;5028026;28;19913;-72
2021/11/30 07:49:28;;;;;;;;;;;4.30;99.90;;;;;;5024069;28;19923;-73
2021/11/30 07:51:54;;;;;;;;;;;4.30;99.90;;;;;;5027338;28;20410;-72
2021/11/30 07:54:19;;;;;;;;;;;4.40;99.90;;;;;;5006985;28;19970;-72
2021/11/30 07:56:47;;;;;;;;;;;4.40;99.90;;;;;;5025214;28;19921;-74
2021/11/30 07:59:12;;;;;;;;;;;4.40;99.90;;;;;;5025026;28;19921;-73
2021/11/30 08:01:38;;;;;;;;;;;4.50;99.90;;;;;;5023717;28;19939;-72
2021/11/30 08:04:03;;;;;;;;;;;4.50;99.90;;;;;;5025057;28;20211;-73
2021/11/30 08:06:29;;;;;;;;;;;4.50;99.90;;;;;;5020408;28;19971;-72
2021/11/30 08:08:56;;;;;;;;;;;4.50;99.90;;;;;;5022224;28;20019;-74
2021/11/30 08:11:21;;;;;;;;;;;4.60;99.90;;;;;;5026585;28;19909;-72
2021/11/30 08:13:47;;;;;;;;;;;4.60;99.90;;;;;;5021818;28;20445;-71
2021/11/30 08:16:12;;;;;;;;;;;4.60;99.90;;;;;;5027789;28;20376;-74
2021/11/30 08:18:38;;;;;;;;;;;4.60;99.90;;;;;;5023301;28;19924;-73
2021/11/30 08:21:03;;;;;;;;;;;4.70;99.90;;;;;;5008400;28;20000;-73
2021/11/30 08:23:29;;;;;;;;;;;4.70;99.90;;;;;;5025946;28;19920;-72
2021/11/30 08:25:54;;;;;;;;;;;4.70;99.90;;;;;;5030716;28;19917;-73
2021/11/30 08:28:19;;;;;;;;;;;4.70;99.90;;;;;;5024333;28;19913;-71
2021/11/30 08:30:45;;;;;;;;;;;4.70;99.90;;;;;;5027568;28;19921;-72
2021/11/30 08:33:11;;;;;;;;;;;4.70;99.90;;;;;;5008455;28;19956;-72
2021/11/30 08:35:37;;;;;;;;;;;4.80;99.90;;;;;;5015009;28;19971;-70
2021/11/30 08:38:03;;;;;;;;;;;4.80;99.90;;;;;;5006603;28;19921;-73
2021/11/30 08:40:29;;;;;;;;;;;4.80;99.90;;;;;;5025473;28;20368;-74
2021/11/30 08:42:54;;;;;;;;;;;4.90;99.90;;;;;;5030017;28;19928;-74
2021/11/30 08:45:20;;;;;;;;;;;4.90;99.90;;;;;;5029186;28;19919;-72
2021/11/30 08:47:45;;;;;;;;;;;4.90;99.90;;;;;;5030426;28;20004;-72
2021/11/30 08:50:15;;;;;;;;;;;5.00;99.90;;;;;;5026483;28;19943;-72
2021/11/30 08:52:41;;;;;;;;;;;5.10;99.90;;;;;;5028880;28;19917;-73
2021/11/30 08:55:07;;;;;;;;;;;5.10;99.90;;;;;;5030084;28;20284;-73
2021/11/30 08:57:33;;;;;;;;;;;5.10;99.90;;;;;;5025481;28;19953;-72
2021/11/30 08:59:58;;;;;;;;;;;5.20;99.90;;;;;;5006929;28;20387;-72
2021/11/30 09:02:24;;;;;;;;;;;5.20;99.90;;;;;;5028666;28;20265;-71
2021/11/30 09:04:50;;;;;;;;;;;5.20;99.90;;;;;;5028480;28;20365;-73
2021/11/30 09:07:17;;;;;;;;;;;5.20;99.90;;;;;;5027353;28;19924;-74
2021/11/30 09:09:47;;;;;;;;;;;5.20;99.90;;;;;;5027797;28;20314;-72
2021/11/30 09:12:12;;;;;;;;;;;5.30;99.90;;;;;;5028468;28;20004;-73
2021/11/30 09:14:38;;;;;;;;;;;5.30;99.90;;;;;;5025059;28;20470;-73
2021/11/30 09:17:03;;;;;;;;;;;5.30;99.90;;;;;;5028010;28;19913;-75
2021/11/30 09:19:29;;;;;;;;;;;5.30;99.90;;;;;;5026755;28;19920;-72
2021/11/30 09:21:55;;;;;;;;;;;5.40;99.90;;;;;;5012131;28;20383;-72
2021/11/30 09:24:20;;;;;;;;;;;5.40;99.90;;;;;;5028831;28;20239;-72
2021/11/30 09:26:46;;;;;;;;;;;5.40;99.90;;;;;;5024889;28;19985;-71
2021/11/30 09:29:12;;;;;;;;;;;5.50;99.90;;;;;;5026823;28;19921;-72
2021/11/30 09:31:38;;;;;;;;;;;5.50;99.90;;;;;;5004843;28;20368;-75
2021/11/30 09:34:04;;;;;;;;;;;5.50;99.90;;;;;;5010452;28;19924;-74
2021/11/30 09:36:31;;;;;;;;;;;5.50;99.90;;;;;;5030127;28;19916;-72
2021/11/30 09:38:58;;;;;;;;;;;5.60;99.90;;;;;;5009957;28;19909;-73
2021/11/30 09:41:23;;;;;;;;;;;5.50;99.90;;;;;;5028294;28;19920;-74
2021/11/30 09:43:50;;;;;;;;;;;5.60;99.90;;;;;;5027218;28;20464;-75
2021/11/30 09:46:15;;;;;;;;;;;5.60;99.90;;;;;;5028923;28;19962;-73
2021/11/30 09:48:41;;;;;;;;;;;5.60;99.90;;;;;;5009801;28;19913;-72
2021/11/30 09:51:06;;;;;;;;;;;5.60;99.90;;;;;;5028572;28;19913;-74
2021/11/30 09:53:32;;;;;;;;;;;5.60;99.90;;;;;;5028458;28;20299;-73
2021/11/30 09:55:57;;;;;;;;;;;5.70;99.90;;;;;;5028916;28;19916;-73
2021/11/30 09:58:24;;;;;;;;;;;5.60;99.90;;;;;;5007136;28;19924;-73
2021/11/30 10:00:51;;;;;;;;;;;5.70;99.90;;;;;;5026639;28;19924;-73
2021/11/30 10:03:18;;;;;;;;;;;5.70;99.90;;;;;;5026505;28;19923;-72
2021/11/30 10:05:43;;;;;;;;;;;5.70;99.90;;;;;;5025533;28;20468;-73
2021/11/30 10:08:22;;;;;;;;;;;5.80;99.90;;;;;;5027450;28;19996;-72
2021/11/30 10:10:48;;;;;;;;;;;5.80;99.90;;;;;;5028976;28;20040;-72
2021/11/30 10:13:14;;;;;;;;;;;5.80;99.90;;;;;;5024707;28;20051;-73
2021/11/30 10:15:45;;;;;;;;;;;5.90;99.90;;;;;;5027152;28;19909;-73
2021/11/30 10:18:14;;;;;;;;;;;6.00;99.90;;;;;;5028064;28;19995;-72
2021/11/30 10:20:39;;;;;;;;;;;6.00;99.90;;;;;;5024796;28;19920;-70
2021/11/30 10:23:05;;;;;;;;;;;6.00;99.90;;;;;;5027570;28;19917;-71
2021/11/30 10:25:41;;;;;;;;;;;6.10;99.90;;;;;;5011462;28;19913;-73
2021/11/30 10:28:09;;;;;;;;;;;6.10;99.90;;;;;;5027768;28;19921;-72
2021/11/30 10:30:35;;;;;;;;;;;6.10;99.90;;;;;;5017707;28;20047;-72
2021/11/30 10:33:03;;;;;;;;;;;6.20;99.90;;;;;;5008857;28;20087;-71
2021/11/30 10:35:29;;;;;;;;;;;6.20;99.90;;;;;;5028025;28;19925;-75
2021/11/30 10:37:57;;;;;;;;;;;6.30;99.90;;;;;;5027781;28;19928;-75
2021/11/30 10:40:23;;;;;;;;;;;6.40;99.90;;;;;;5008306;28;19924;-72
2021/11/30 10:42:53;;;;;;;;;;;6.40;99.90;;;;;;5028615;28;19928;-72
2021/11/30 10:45:29;;;;;;;;;;;6.50;99.90;;;;;;5026062;28;19921;-73
2021/11/30 10:48:01;;;;;;;;;;;6.50;99.90;;;;;;5028264;28;20376;-74
2021/11/30 10:50:28;;;;;;;;;;;6.50;99.90;;;;;;5028065;28;20387;-73
2021/11/30 10:52:57;;;;;;;;;;;6.60;99.90;;;;;;5026049;28;19922;-74
2021/11/30 10:55:23;;;;;;;;;;;6.60;99.90;;;;;;5022072;28;20018;-74
2021/11/30 10:57:49;;;;;;;;;;;6.60;99.90;;;;;;5025226;28;19952;-67
2021/11/30 11:00:30;;;;;;;;;;;6.90;99.90;;;;;;5026084;28;20394;-72
2021/11/30 11:03:07;;;;;;;;;;;7.20;99.90;;;;;;5024850;28;20426;-73
2021/11/30 11:05:34;;;;;;;;;;;7.30;99.90;;;;;;5026035;28;19913;-72
2021/11/30 11:08:02;;;;;;;;;;;7.20;99.90;;;;;;5017821;28;20016;-73
2021/11/30 11:10:28;;;;;;;;;;;7.10;99.90;;;;;;5025915;28;19963;-73
2021/11/30 11:12:53;;;;;;;;;;;7.10;99.90;;;;;;5008090;28;19921;-72
2021/11/30 11:15:35;;;;;;;;;;;7.10;99.90;;;;;;5003799;28;19953;-71
2021/11/30 11:18:16;;;;;;;;;;;7.10;99.90;;;;;;5028773;28;19914;-71
2021/11/30 11:20:41;;;;;;;;;;;7.10;99.90;;;;;;5021911;28;20988;-72
2021/11/30 11:23:07;;;;;;;;;;;7.10;99.90;;;;;;5027862;28;20011;-72
2021/11/30 11:25:32;;;;;;;;;;;7.10;99.90;;;;;;5009600;28;19957;-71
2021/11/30 11:27:58;;;;;;;;;;;7.10;99.90;;;;;;5027821;28;20007;-70
2021/11/30 11:30:24;;;;;;;;;;;7.20;99.90;;;;;;5022585;28;19925;-69
2021/11/30 11:32:49;;;;;;;;;;;7.20;99.90;;;;;;5008649;28;19913;-70
2021/11/30 11:35:16;;;;;;;;;;;7.20;99.90;;;;;;5028662;28;19909;-69
2021/11/30 11:37:44;;;;;;;;;;;7.30;99.90;;;;;;5025483;28;20288;-69
2021/11/30 11:40:10;;;;;;;;;;;7.30;99.90;;;;;;5015785;28;20436;-72
2021/11/30 11:42:36;;;;;;;;;;;7.30;99.90;;;;;;5024597;28;20052;-72
2021/11/30 11:45:02;;;;;;;;;;;7.40;99.90;;;;;;5007436;28;20402;-73
2021/11/30 11:47:28;;;;;;;;;;;7.40;99.90;;;;;;5024990;28;20295;-73
2021/11/30 11:49:54;;;;;;;;;;;7.40;99.90;;;;;;5024850;28;19913;-71
2021/11/30 11:52:20;;;;;;;;;;;7.50;99.90;;;;;;5028076;28;19913;-73
2021/11/30 11:54:55;;;;;;;;;;;7.50;99.90;;;;;;5022593;28;19996;-72
2021/11/30 11:57:23;;;;;;;;;;;7.50;99.90;;;;;;5018704;28;20276;-72
2021/11/30 11:59:49;;;;;;;;;;;7.50;99.90;;;;;;5024051;28;20021;-72
2021/11/30 12:02:19;;;;;;;;;;;7.60;99.90;;;;;;5008053;28;19971;-72
2021/11/30 12:04:45;;;;;;;;;;;7.60;99.90;;;;;;5026948;28;19917;-72
2021/11/30 12:07:11;;;;;;;;;;;7.60;99.90;;;;;;5024497;28;19924;-70
2021/11/30 12:09:36;;;;;;;;;;;7.70;99.90;;;;;;5020851;28;20324;-72
2021/11/30 12:12:11;;;;;;;;;;;7.70;99.90;;;;;;5022910;28;20333;-69
2021/11/30 12:14:38;;;;;;;;;;;7.70;99.90;;;;;;5020827;28;19960;-71
2021/11/30 12:17:15;;;;;;;;;;;7.80;99.90;;;;;;5023288;28;19915;-70
2021/11/30 12:19:46;;;;;;;;;;;7.80;99.90;;;;;;5022865;28;19917;-71
2021/11/30 12:22:32;;;;;;;;;;;7.80;99.90;;;;;;5025920;28;19921;-72
2021/11/30 12:24:57;;;;;;;;;;;7.80;99.90;;;;;;5025161;28;19925;-74
2021/11/30 12:27:23;;;;;;;;;;;7.80;99.90;;;;;;5025339;28;19913;-74
2021/11/30 12:29:50;;;;;;;;;;;7.80;99.90;;;;;;4998494;28;20404;-73
2021/11/30 12:32:20;;;;;;;;;;;7.80;99.90;;;;;;5017636;28;20002;-74
2021/11/30 12:34:49;;;;;;;;;;;7.80;99.90;;;;;;5020003;28;20406;-73
2021/11/30 12:37:21;;;;;;;;;;;7.80;99.90;;;;;;5025094;28;19928;-73
2021/11/30 12:40:09;;;;;;;;;;;7.80;99.90;;;;;;5023356;28;19939;-72
2021/11/30 12:42:51;;;;;;;;;;;7.80;99.90;;;;;;5012168;28;19921;-73
2021/11/30 12:45:21;;;;;;;;;;;7.80;99.90;;;;;;5026156;28;20120;-73
2021/11/30 12:47:46;;;;;;;;;;;7.80;99.90;;;;;;5025446;28;19929;-73
2021/11/30 12:50:21;;;;;;;;;;;7.70;99.90;;;;;;5023186;28;20534;-71
2021/11/30 12:52:51;;;;;;;;;;;7.70;99.90;;;;;;5026301;28;19917;-72
2021/11/30 12:55:18;;;;;;;;;;;7.60;99.90;;;;;;5009095;28;19917;-73
2021/11/30 12:57:45;;;;;;;;;;;7.60;99.90;;;;;;5024228;28;19917;-74
2021/11/30 13:00:11;;;;;;;;;;;7.50;99.90;;;;;;5017049;28;20433;-74
2021/11/30 13:02:41;;;;;;;;;;;7.40;99.90;;;;;;5024723;28;19918;-73
2021/11/30 13:05:10;;;;;;;;;;;7.40;99.90;;;;;;4998494;28;19926;-77
2021/11/30 13:07:36;;;;;;;;;;;7.30;99.90;;;;;;4996415;28;19922;-75
2021/11/30 13:10:04;;;;;;;;;;;7.20;99.90;;;;;;5007946;28;19913;-73
2021/11/30 13:12:31;;;;;;;;;;;7.10;99.90;;;;;;5020035;28;19917;-75
2021/11/30 13:14:57;;;;;;;;;;;7.10;99.90;;;;;;5026076;28;19917;-76
2021/11/30 13:17:27;;;;;;;;;;;7.00;99.90;;;;;;5009970;28;19963;-75
2021/11/30 13:19:53;;;;;;;;;;;7.00;99.90;;;;;;5024840;28;19913;-74
2021/11/30 13:22:18;;;;;;;;;;;6.90;99.90;;;;;;5030086;28;20387;-75
2021/11/30 13:24:49;;;;;;;;;;;6.90;99.90;;;;;;5029009;28;19917;-75
2021/11/30 13:27:17;;;;;;;;;;;6.90;99.90;;;;;;5008641;28;19921;-77
2021/11/30 13:29:54;;;;;;;;;;;6.90;99.90;;;;;;5029607;28;19956;-75
2021/11/30 13:32:24;;;;;;;;;;;6.90;99.90;;;;;;5021969;28;19913;-75
2021/11/30 13:35:10;;;;;;;;;;;6.90;99.90;;;;;;5019611;28;20274;-75
2021/11/30 13:37:39;;;;;;;;;;;6.90;99.90;;;;;;5027313;28;20000;-72
2021/11/30 13:40:09;;;;;;;;;;;6.90;99.90;;;;;;5027378;28;20019;-72
2021/11/30 13:42:44;;;;;;;;;;;7.00;99.90;;;;;;5027247;28;20366;-72
2021/11/30 13:45:12;;;;;;;;;;;7.00;99.90;;;;;;5027797;28;20403;-73
2021/11/30 13:47:49;;;;;;;;;;;7.00;99.90;;;;;;5030268;28;19924;-76
2021/11/30 13:50:14;;;;;;;;;;;7.00;99.90;;;;;;5005285;28;19920;-75
2021/11/30 13:52:40;;;;;;;;;;;7.00;99.90;;;;;;5028022;28;19913;-75
2021/11/30 13:55:05;;;;;;;;;;;7.00;99.90;;;;;;5025465;28;19913;-74
2021/11/30 13:57:34;;;;;;;;;;;7.00;99.90;;;;;;5028844;28;19917;-74
2021/11/30 14:00:02;;;;;;;;;;;7.00;99.90;;;;;;5010805;28;19920;-74
2021/11/30 14:02:38;;;;;;;;;;;7.00;99.90;;;;;;5026236;28;19929;-74
2021/11/30 14:05:04;;;;;;;;;;;7.10;99.90;;;;;;5028766;28;19919;-74
2021/11/30 14:07:33;;;;;;;;;;;7.10;99.90;;;;;;5027706;28;20394;-74
2021/11/30 14:10:00;;;;;;;;;;;7.00;99.90;;;;;;5029563;28;19921;-75
2021/11/30 14:12:25;;;;;;;;;;;7.00;99.90;;;;;;5017223;28;19917;-75
2021/11/30 14:14:52;;;;;;;;;;;7.10;99.90;;;;;;5020108;28;19928;-78
2021/11/30 14:17:18;;;;;;;;;;;7.10;99.90;;;;;;5024605;28;19935;-76
2021/11/30 14:19:44;;;;;;;;;;;7.10;99.90;;;;;;4999802;28;19921;-75
2021/11/30 14:22:11;;;;;;;;;;;7.10;99.90;;;;;;5024998;28;19923;-74
2021/11/30 14:24:50;;;;;;;;;;;7.10;99.90;;;;;;5026929;28;19944;-78
2021/11/30 14:27:15;;;;;;;;;;;7.10;99.90;;;;;;5025297;28;19925;-76
2021/11/30 14:29:43;;;;;;;;;;;7.10;99.90;;;;;;5021702;28;19971;-77
2021/11/30 14:32:16;;;;;;;;;;;7.10;99.90;;;;;;5025413;28;19913;-77
2021/11/30 14:34:43;;;;;;;;;;;7.10;99.80;;;;;;5026904;28;19913;-79
2021/11/30 14:37:15;;;;;;;;;;;7.10;99.90;;;;;;5018763;28;20290;-76
2021/11/30 14:39:40;;;;;;;;;;;7.10;99.90;;;;;;5025105;28;19948;-75
2021/11/30 14:42:22;;;;;;;;;;;7.10;99.90;;;;;;5021874;28;20026;-76